INFORMACIÓN METAR y TAF
METAR FOR ENSD
ADDS - METARS form results

(0904 UTC 22 May 2019)
Data provider http://aviationweather.gov/metar/data/
 
METAR text: ENSD 220850Z 07004KT 9999 -DZ FEW005 SCT055 BKN080 15/13 Q1007 RMK WIND 1138FT VRB02KT
Conditions at: ENSD (SANDANE/ANDA , NO) observed 0850 UTC 22 May 2019
Temperature: 15.0°C (59°F)
Dewpoint: 13.0°C (55°F) [RH = 88%]
Pressure (altimeter): 29.73 inches Hg (1007.0 mb)
Winds: from the ENE (70 degrees) at 5 MPH (4 knots; 2.1 m/s)
Visibility: 6 or more miles (10+ km)
Ceiling: 8000 feet AGL
Clouds: few clouds at 500 feet AGL
scattered clouds at 5500 feet AGL
broken clouds at 8000 feet AGL
Weather: -DZ  (light drizzle)

METAR text: ENSD 220820Z VRB01KT 9999 -RA FEW005 SCT055 BKN075 15/13 Q1007 RMK WIND 1138FT VRB02KT
Conditions at: ENSD (SANDANE/ANDA , NO) observed 0820 UTC 22 May 2019
Temperature: 15.0°C (59°F)
Dewpoint: 13.0°C (55°F) [RH = 88%]
Pressure (altimeter): 29.73 inches Hg (1007.0 mb)
Winds: variable direction winds at 1 MPH (1 knots; 0.5 m/s)
Visibility: 6 or more miles (10+ km)
Ceiling: 7500 feet AGL
Clouds: few clouds at 500 feet AGL
scattered clouds at 5500 feet AGL
broken clouds at 7500 feet AGL
Weather: -RA  (light rain)

 MAPA DE AEROPUERTO

 INFORMACIÓN DE PISTA
Pista 09 Longitud 2756 ft Ancho 98 ft
Elevación 181 ft Umbral desplazado 0 ft Rumbo de pista 0
Pista 27 Longitud 2756 ft Ancho 98 ft
Elevación 179 ft Umbral desplazado 0 ft Rumbo de pista 0

 FRECUANCIAS DEL AEROPUERTO

 RADIO AYUDAS DEL AEROPUERTO
Tipo NDB Nombre Anda Frecuencia 288 KHZ



Powered by Virtual Airlines Manager [v2.6.2]